sensor_id;sensor_type;location;lat;lon;timestamp;temperature;humidity
35647;DHT22;28680;45.642;13.756;2024-01-15T00:00:08;6.90;99.90
35647;DHT22;28680;45.642;13.756;2024-01-15T00:02:37;6.90;99.90
35647;DHT22;28680;45.642;13.756;2024-01-15T00:05:03;6.90;99.90
35647;DHT22;28680;45.642;13.756;2024-01-15T00:07:28;6.90;99.90
35647;DHT22;28680;45.642;13.756;2024-01-15T00:09:54;6.90;99.90
35647;DHT22;28680;45.642;13.756;2024-01-15T00:12:20;6.90;99.90
35647;DHT22;28680;45.642;13.756;2024-01-15T00:14:46;6.90;99.90
35647;DHT22;28680;45.642;13.756;2024-01-15T00:17:12;6.90;99.90
35647;DHT22;28680;45.642;13.756;2024-01-15T00:19:38;6.90;99.90
35647;DHT22;28680;45.642;13.756;2024-01-15T00:22:04;6.90;99.90
35647;DHT22;28680;45.642;13.756;2024-01-15T00:24:30;6.80;99.90
35647;DHT22;28680;45.642;13.756;2024-01-15T00:26:58;6.80;99.90
35647;DHT22;28680;45.642;13.756;2024-01-15T00:29:24;6.90;99.90
35647;DHT22;28680;45.642;13.756;2024-01-15T00:31:50;6.90;99.90
35647;DHT22;28680;45.642;13.756;2024-01-15T00:34:16;6.90;99.90
35647;DHT22;28680;45.642;13.756;2024-01-15T00:36:41;6.90;99.90
35647;DHT22;28680;45.642;13.756;2024-01-15T00:39:07;6.80;99.90
35647;DHT22;28680;45.642;13.756;2024-01-15T00:41:33;6.80;99.90
35647;DHT22;28680;45.642;13.756;2024-01-15T00:43:59;6.80;99.90
35647;DHT22;28680;45.642;13.756;2024-01-15T00:46:24;6.80;99.90
35647;DHT22;28680;45.642;13.756;2024-01-15T00:48:50;6.70;99.90
35647;DHT22;28680;45.642;13.756;2024-01-15T00:51:16;6.70;99.90
35647;DHT22;28680;45.642;13.756;2024-01-15T00:53:42;6.80;99.90
35647;DHT22;28680;45.642;13.756;2024-01-15T00:56:07;6.80;99.90
35647;DHT22;28680;45.642;13.756;2024-01-15T00:58:33;6.70;99.90
35647;DHT22;28680;45.642;13.756;2024-01-15T01:00:59;6.80;99.90
35647;DHT22;28680;45.642;13.756;2024-01-15T01:03:25;6.80;99.90
35647;DHT22;28680;45.642;13.756;2024-01-15T01:05:50;6.80;99.90
35647;DHT22;28680;45.642;13.756;2024-01-15T01:08:16;6.80;99.90
35647;DHT22;28680;45.642;13.756;2024-01-15T01:10:42;6.80;99.90
35647;DHT22;28680;45.642;13.756;2024-01-15T01:13:11;6.80;99.90
35647;DHT22;28680;45.642;13.756;2024-01-15T01:15:36;6.80;99.90
35647;DHT22;28680;45.642;13.756;2024-01-15T01:18:03;6.80;99.90
35647;DHT22;28680;45.642;13.756;2024-01-15T01:20:28;6.80;99.90
35647;DHT22;28680;45.642;13.756;2024-01-15T01:22:54;6.80;99.90
35647;DHT22;28680;45.642;13.756;2024-01-15T01:25:20;6.80;99.90
35647;DHT22;28680;45.642;13.756;2024-01-15T01:27:46;6.80;99.90
35647;DHT22;28680;45.642;13.756;2024-01-15T01:30:11;6.80;99.90
35647;DHT22;28680;45.642;13.756;2024-01-15T01:32:37;6.80;99.90
35647;DHT22;28680;45.642;13.756;2024-01-15T01:35:03;6.90;99.90
35647;DHT22;28680;45.642;13.756;2024-01-15T01:37:29;6.90;99.90
35647;DHT22;28680;45.642;13.756;2024-01-15T01:39:55;6.90;99.90
35647;DHT22;28680;45.642;13.756;2024-01-15T01:42:21;6.90;99.90
35647;DHT22;28680;45.642;13.756;2024-01-15T01:44:46;6.90;99.90
35647;DHT22;28680;45.642;13.756;2024-01-15T01:47:13;6.90;99.90
35647;DHT22;28680;45.642;13.756;2024-01-15T01:49:40;6.90;99.90
35647;DHT22;28680;45.642;13.756;2024-01-15T01:52:07;6.90;99.90
35647;DHT22;28680;45.642;13.756;2024-01-15T01:54:35;6.90;99.90
35647;DHT22;28680;45.642;13.756;2024-01-15T01:57:03;6.90;99.90
35647;DHT22;28680;45.642;13.756;2024-01-15T01:59:30;6.90;99.90
35647;DHT22;28680;45.642;13.756;2024-01-15T02:01:57;6.90;99.90
35647;DHT22;28680;45.642;13.756;2024-01-15T02:04:24;6.90;99.90
35647;DHT22;28680;45.642;13.756;2024-01-15T02:06:51;6.90;99.90
35647;DHT22;28680;45.642;13.756;2024-01-15T02:09:18;6.90;99.90
35647;DHT22;28680;45.642;13.756;2024-01-15T02:11:46;6.90;99.90
35647;DHT22;28680;45.642;13.756;2024-01-15T02:14:13;6.90;99.90
35647;DHT22;28680;45.642;13.756;2024-01-15T02:16:38;6.90;99.90
35647;DHT22;28680;45.642;13.756;2024-01-15T02:19:04;6.90;99.90
35647;DHT22;28680;45.642;13.756;2024-01-15T02:21:31;6.80;99.90
35647;DHT22;28680;45.642;13.756;2024-01-15T02:23:58;6.90;99.90
35647;DHT22;28680;45.642;13.756;2024-01-15T02:26:24;6.90;99.90
35647;DHT22;28680;45.642;13.756;2024-01-15T02:28:51;6.80;99.90
35647;DHT22;28680;45.642;13.756;2024-01-15T02:31:17;6.80;99.90
35647;DHT22;28680;45.642;13.756;2024-01-15T02:33:43;6.80;99.90
35647;DHT22;28680;45.642;13.756;2024-01-15T02:36:11;6.90;99.90
35647;DHT22;28680;45.642;13.756;2024-01-15T02:38:37;6.80;99.90
35647;DHT22;28680;45.642;13.756;2024-01-15T02:41:04;6.80;99.90
35647;DHT22;28680;45.642;13.756;2024-01-15T02:43:29;6.80;99.90
35647;DHT22;28680;45.642;13.756;2024-01-15T02:45:55;6.90;99.90
35647;DHT22;28680;45.642;13.756;2024-01-15T02:48:21;6.80;99.90
35647;DHT22;28680;45.642;13.756;2024-01-15T02:50:47;6.80;99.90
35647;DHT22;28680;45.642;13.756;2024-01-15T02:53:12;6.90;99.90
35647;DHT22;28680;45.642;13.756;2024-01-15T02:55:38;6.90;99.90
35647;DHT22;28680;45.642;13.756;2024-01-15T02:58:04;6.90;99.90
35647;DHT22;28680;45.642;13.756;2024-01-15T03:00:30;6.90;99.90
35647;DHT22;28680;45.642;13.756;2024-01-15T03:02:56;7.00;99.90
35647;DHT22;28680;45.642;13.756;2024-01-15T03:05:22;7.00;99.90
35647;DHT22;28680;45.642;13.756;2024-01-15T03:07:48;6.90;99.90
35647;DHT22;28680;45.642;13.756;2024-01-15T03:10:14;7.00;99.90
35647;DHT22;28680;45.642;13.756;2024-01-15T03:12:39;7.00;99.90
35647;DHT22;28680;45.642;13.756;2024-01-15T03:15:06;7.00;99.90
35647;DHT22;28680;45.642;13.756;2024-01-15T03:17:31;6.90;99.90
35647;DHT22;28680;45.642;13.756;2024-01-15T03:19:57;6.90;99.90
35647;DHT22;28680;45.642;13.756;2024-01-15T03:22:23;7.00;99.90
35647;DHT22;28680;45.642;13.756;2024-01-15T03:24:49;7.00;99.90
35647;DHT22;28680;45.642;13.756;2024-01-15T03:27:15;7.00;99.90
35647;DHT22;28680;45.642;13.756;2024-01-15T03:29:41;7.00;99.90
35647;DHT22;28680;45.642;13.756;2024-01-15T03:32:07;7.00;99.90
35647;DHT22;28680;45.642;13.756;2024-01-15T03:34:32;7.00;99.90
35647;DHT22;28680;45.642;13.756;2024-01-15T03:36:58;7.00;99.90
35647;DHT22;28680;45.642;13.756;2024-01-15T03:39:25;7.00;99.90
35647;DHT22;28680;45.642;13.756;2024-01-15T03:41:50;7.00;99.90
35647;DHT22;28680;45.642;13.756;2024-01-15T03:44:16;7.00;99.90
35647;DHT22;28680;45.642;13.756;2024-01-15T03:46:42;7.00;99.90
35647;DHT22;28680;45.642;13.756;2024-01-15T03:49:08;7.00;99.90
35647;DHT22;28680;45.642;13.756;2024-01-15T03:51:33;7.00;99.90
35647;DHT22;28680;45.642;13.756;2024-01-15T03:53:59;6.90;99.90
35647;DHT22;28680;45.642;13.756;2024-01-15T03:56:25;6.90;99.90
35647;DHT22;28680;45.642;13.756;2024-01-15T03:58:51;6.80;99.90
35647;DHT22;28680;45.642;13.756;2024-01-15T04:01:16;6.80;99.90
35647;DHT22;28680;45.642;13.756;2024-01-15T04:03:42;6.90;99.90
35647;DHT22;28680;45.642;13.756;2024-01-15T04:06:08;6.90;99.90
35647;DHT22;28680;45.642;13.756;2024-01-15T04:08:34;6.90;99.90
35647;DHT22;28680;45.642;13.756;2024-01-15T04:10:59;7.00;99.90
35647;DHT22;28680;45.642;13.756;2024-01-15T04:13:27;7.00;99.90
35647;DHT22;28680;45.642;13.756;2024-01-15T04:15:53;7.10;99.90
35647;DHT22;28680;45.642;13.756;2024-01-15T04:18:18;7.00;99.90
35647;DHT22;28680;45.642;13.756;2024-01-15T04:20:44;7.00;99.90
35647;DHT22;28680;45.642;13.756;2024-01-15T04:23:10;7.00;99.90
35647;DHT22;28680;45.642;13.756;2024-01-15T04:25:36;6.90;99.90
35647;DHT22;28680;45.642;13.756;2024-01-15T04:28:02;6.80;99.90
35647;DHT22;28680;45.642;13.756;2024-01-15T04:30:28;6.80;99.90
35647;DHT22;28680;45.642;13.756;2024-01-15T04:32:53;6.80;99.90
35647;DHT22;28680;45.642;13.756;2024-01-15T04:35:19;6.80;99.90
35647;DHT22;28680;45.642;13.756;2024-01-15T04:37:45;6.80;99.90
35647;DHT22;28680;45.642;13.756;2024-01-15T04:40:11;6.80;99.90
35647;DHT22;28680;45.642;13.756;2024-01-15T04:42:37;6.70;99.90
35647;DHT22;28680;45.642;13.756;2024-01-15T04:45:03;6.80;99.90
35647;DHT22;28680;45.642;13.756;2024-01-15T04:47:29;6.80;99.90
35647;DHT22;28680;45.642;13.756;2024-01-15T04:49:55;6.80;99.90
35647;DHT22;28680;45.642;13.756;2024-01-15T04:52:20;6.80;99.90
35647;DHT22;28680;45.642;13.756;2024-01-15T04:54:46;6.80;99.90
35647;DHT22;28680;45.642;13.756;2024-01-15T04:57:12;6.80;99.90
35647;DHT22;28680;45.642;13.756;2024-01-15T04:59:38;6.80;99.90
35647;DHT22;28680;45.642;13.756;2024-01-15T05:02:03;6.80;99.90
35647;DHT22;28680;45.642;13.756;2024-01-15T05:04:29;6.80;99.90
35647;DHT22;28680;45.642;13.756;2024-01-15T05:06:55;6.80;99.90
35647;DHT22;28680;45.642;13.756;2024-01-15T05:09:21;6.80;99.90
35647;DHT22;28680;45.642;13.756;2024-01-15T05:11:47;6.80;99.90
35647;DHT22;28680;45.642;13.756;2024-01-15T05:14:12;6.90;99.90
35647;DHT22;28680;45.642;13.756;2024-01-15T05:16:39;6.90;99.90
35647;DHT22;28680;45.642;13.756;2024-01-15T05:19:07;6.90;99.90
35647;DHT22;28680;45.642;13.756;2024-01-15T05:21:33;7.00;99.90
35647;DHT22;28680;45.642;13.756;2024-01-15T05:23:58;6.90;99.90
35647;DHT22;28680;45.642;13.756;2024-01-15T05:26:24;6.90;99.90
35647;DHT22;28680;45.642;13.756;2024-01-15T05:28:50;6.90;99.90
35647;DHT22;28680;45.642;13.756;2024-01-15T05:31:16;6.90;99.90
35647;DHT22;28680;45.642;13.756;2024-01-15T05:33:41;6.90;99.90
35647;DHT22;28680;45.642;13.756;2024-01-15T05:36:07;6.90;99.90
35647;DHT22;28680;45.642;13.756;2024-01-15T05:38:33;6.90;99.90
35647;DHT22;28680;45.642;13.756;2024-01-15T05:40:59;6.90;99.90
35647;DHT22;28680;45.642;13.756;2024-01-15T05:43:26;6.90;99.90
35647;DHT22;28680;45.642;13.756;2024-01-15T05:45:51;6.90;99.90
35647;DHT22;28680;45.642;13.756;2024-01-15T05:48:17;6.90;99.90
35647;DHT22;28680;45.642;13.756;2024-01-15T05:50:43;6.90;99.90
35647;DHT22;28680;45.642;13.756;2024-01-15T05:53:09;7.00;99.90
35647;DHT22;28680;45.642;13.756;2024-01-15T05:55:36;7.00;99.90
35647;DHT22;28680;45.642;13.756;2024-01-15T05:58:02;6.90;99.90
35647;DHT22;28680;45.642;13.756;2024-01-15T06:00:28;7.00;99.90
35647;DHT22;28680;45.642;13.756;2024-01-15T06:02:54;6.90;99.90
35647;DHT22;28680;45.642;13.756;2024-01-15T06:05:20;7.00;99.90
35647;DHT22;28680;45.642;13.756;2024-01-15T06:07:46;7.00;99.90
35647;DHT22;28680;45.642;13.756;2024-01-15T06:10:12;7.00;99.90
35647;DHT22;28680;45.642;13.756;2024-01-15T06:12:38;7.00;99.90
35647;DHT22;28680;45.642;13.756;2024-01-15T06:15:04;7.00;99.90
35647;DHT22;28680;45.642;13.756;2024-01-15T06:17:30;6.90;99.90
35647;DHT22;28680;45.642;13.756;2024-01-15T06:19:56;7.00;99.90
35647;DHT22;28680;45.642;13.756;2024-01-15T06:22:23;6.90;99.90
35647;DHT22;28680;45.642;13.756;2024-01-15T06:24:49;6.90;99.90
35647;DHT22;28680;45.642;13.756;2024-01-15T06:27:14;6.90;99.90
35647;DHT22;28680;45.642;13.756;2024-01-15T06:29:45;6.90;99.90
35647;DHT22;28680;45.642;13.756;2024-01-15T06:32:11;6.90;99.90
35647;DHT22;28680;45.642;13.756;2024-01-15T06:34:37;6.90;99.90
35647;DHT22;28680;45.642;13.756;2024-01-15T06:37:03;6.90;99.90
35647;DHT22;28680;45.642;13.756;2024-01-15T06:39:28;6.90;99.90
35647;DHT22;28680;45.642;13.756;2024-01-15T06:41:55;6.90;99.90
35647;DHT22;28680;45.642;13.756;2024-01-15T06:44:20;6.90;99.90
35647;DHT22;28680;45.642;13.756;2024-01-15T06:46:47;6.90;99.90
35647;DHT22;28680;45.642;13.756;2024-01-15T06:49:13;6.90;99.90
35647;DHT22;28680;45.642;13.756;2024-01-15T06:51:39;6.90;99.90
35647;DHT22;28680;45.642;13.756;2024-01-15T06:54:05;6.90;99.90
35647;DHT22;28680;45.642;13.756;2024-01-15T06:56:31;6.90;99.90
35647;DHT22;28680;45.642;13.756;2024-01-15T06:58:57;6.90;99.90
35647;DHT22;28680;45.642;13.756;2024-01-15T07:01:23;6.90;99.90
35647;DHT22;28680;45.642;13.756;2024-01-15T07:03:49;6.90;99.90
35647;DHT22;28680;45.642;13.756;2024-01-15T07:06:15;6.90;99.90
35647;DHT22;28680;45.642;13.756;2024-01-15T07:08:41;6.90;99.90
35647;DHT22;28680;45.642;13.756;2024-01-15T07:11:07;6.90;99.90
35647;DHT22;28680;45.642;13.756;2024-01-15T07:13:33;6.90;99.90
35647;DHT22;28680;45.642;13.756;2024-01-15T07:15:59;7.00;99.90
35647;DHT22;28680;45.642;13.756;2024-01-15T07:18:25;6.90;99.90
35647;DHT22;28680;45.642;13.756;2024-01-15T07:20:51;6.90;99.90
35647;DHT22;28680;45.642;13.756;2024-01-15T07:23:17;7.00;99.90
35647;DHT22;28680;45.642;13.756;2024-01-15T07:25:43;7.10;99.90
35647;DHT22;28680;45.642;13.756;2024-01-15T07:28:09;7.30;99.90
35647;DHT22;28680;45.642;13.756;2024-01-15T07:30:36;7.10;99.90
35647;DHT22;28680;45.642;13.756;2024-01-15T07:33:04;7.10;99.90
35647;DHT22;28680;45.642;13.756;2024-01-15T07:35:31;7.10;99.90
35647;DHT22;28680;45.642;13.756;2024-01-15T07:37:57;7.10;99.90
35647;DHT22;28680;45.642;13.756;2024-01-15T07:40:23;7.10;99.90
35647;DHT22;28680;45.642;13.756;2024-01-15T07:42:50;7.20;99.90
35647;DHT22;28680;45.642;13.756;2024-01-15T07:45:16;7.20;99.90
35647;DHT22;28680;45.642;13.756;2024-01-15T07:47:43;7.20;99.90
35647;DHT22;28680;45.642;13.756;2024-01-15T07:50:10;7.20;99.90
35647;DHT22;28680;45.642;13.756;2024-01-15T07:52:36;7.30;99.90
35647;DHT22;28680;45.642;13.756;2024-01-15T07:55:02;7.30;99.90
35647;DHT22;28680;45.642;13.756;2024-01-15T07:57:29;7.30;99.90
35647;DHT22;28680;45.642;13.756;2024-01-15T07:59:55;7.40;99.90
35647;DHT22;28680;45.642;13.756;2024-01-15T08:02:21;7.40;99.90
35647;DHT22;28680;45.642;13.756;2024-01-15T08:04:47;7.40;99.90
35647;DHT22;28680;45.642;13.756;2024-01-15T08:07:13;7.50;99.90
35647;DHT22;28680;45.642;13.756;2024-01-15T08:09:40;7.50;99.90
35647;DHT22;28680;45.642;13.756;2024-01-15T08:12:07;7.50;99.90
35647;DHT22;28680;45.642;13.756;2024-01-15T08:14:33;7.60;99.90
35647;DHT22;28680;45.642;13.756;2024-01-15T08:16:59;7.60;99.90
35647;DHT22;28680;45.642;13.756;2024-01-15T08:19:25;7.60;99.90
35647;DHT22;28680;45.642;13.756;2024-01-15T08:21:51;7.70;99.90
35647;DHT22;28680;45.642;13.756;2024-01-15T08:24:17;7.70;99.90
35647;DHT22;28680;45.642;13.756;2024-01-15T08:26:43;7.80;99.90
35647;DHT22;28680;45.642;13.756;2024-01-15T08:29:09;7.90;99.90
35647;DHT22;28680;45.642;13.756;2024-01-15T08:31:34;7.90;99.90
35647;DHT22;28680;45.642;13.756;2024-01-15T08:34:00;7.90;99.90
35647;DHT22;28680;45.642;13.756;2024-01-15T08:36:27;7.90;99.90
35647;DHT22;28680;45.642;13.756;2024-01-15T08:38:55;7.90;99.90
35647;DHT22;28680;45.642;13.756;2024-01-15T08:41:21;8.00;99.90
35647;DHT22;28680;45.642;13.756;2024-01-15T08:43:46;8.00;99.90
35647;DHT22;28680;45.642;13.756;2024-01-15T08:46:12;8.00;99.90
35647;DHT22;28680;45.642;13.756;2024-01-15T08:48:38;8.00;99.90
35647;DHT22;28680;45.642;13.756;2024-01-15T08:51:05;7.90;99.90
35647;DHT22;28680;45.642;13.756;2024-01-15T08:53:31;7.90;99.90
35647;DHT22;28680;45.642;13.756;2024-01-15T08:55:58;7.90;99.90
35647;DHT22;28680;45.642;13.756;2024-01-15T08:58:24;7.90;99.90
35647;DHT22;28680;45.642;13.756;2024-01-15T09:00:50;7.90;99.90
35647;DHT22;28680;45.642;13.756;2024-01-15T09:03:16;7.90;99.90
35647;DHT22;28680;45.642;13.756;2024-01-15T09:05:42;7.90;99.90
35647;DHT22;28680;45.642;13.756;2024-01-15T09:08:08;7.90;99.90
35647;DHT22;28680;45.642;13.756;2024-01-15T09:10:34;8.00;99.90
35647;DHT22;28680;45.642;13.756;2024-01-15T09:13:00;8.00;99.90
35647;DHT22;28680;45.642;13.756;2024-01-15T09:15:26;8.00;99.90
35647;DHT22;28680;45.642;13.756;2024-01-15T09:17:52;8.00;99.90
35647;DHT22;28680;45.642;13.756;2024-01-15T09:20:17;8.00;99.90
35647;DHT22;28680;45.642;13.756;2024-01-15T09:22:45;8.00;99.90
35647;DHT22;28680;45.642;13.756;2024-01-15T09:25:11;8.10;99.90
35647;DHT22;28680;45.642;13.756;2024-01-15T09:27:37;8.10;99.90
35647;DHT22;28680;45.642;13.756;2024-01-15T09:30:03;8.20;99.90
35647;DHT22;28680;45.642;13.756;2024-01-15T09:32:30;8.20;99.90
35647;DHT22;28680;45.642;13.756;2024-01-15T09:34:56;8.30;99.90
35647;DHT22;28680;45.642;13.756;2024-01-15T09:37:22;8.30;99.90
35647;DHT22;28680;45.642;13.756;2024-01-15T09:39:49;8.30;99.90
35647;DHT22;28680;45.642;13.756;2024-01-15T09:42:16;8.30;99.90
35647;DHT22;28680;45.642;13.756;2024-01-15T09:44:42;8.30;99.90
35647;DHT22;28680;45.642;13.756;2024-01-15T09:47:08;8.30;99.90
35647;DHT22;28680;45.642;13.756;2024-01-15T09:49:34;8.30;99.90
35647;DHT22;28680;45.642;13.756;2024-01-15T09:52:01;8.40;99.90
35647;DHT22;28680;45.642;13.756;2024-01-15T09:54:27;8.30;99.90
35647;DHT22;28680;45.642;13.756;2024-01-15T09:56:54;8.40;99.90
35647;DHT22;28680;45.642;13.756;2024-01-15T09:59:22;8.50;99.90
35647;DHT22;28680;45.642;13.756;2024-01-15T10:01:50;8.40;99.90
35647;DHT22;28680;45.642;13.756;2024-01-15T10:04:16;8.40;99.90
35647;DHT22;28680;45.642;13.756;2024-01-15T10:06:45;8.40;99.90
35647;DHT22;28680;45.642;13.756;2024-01-15T10:09:13;8.30;99.90
35647;DHT22;28680;45.642;13.756;2024-01-15T10:11:43;8.30;99.90
35647;DHT22;28680;45.642;13.756;2024-01-15T10:14:12;8.30;99.90
35647;DHT22;28680;45.642;13.756;2024-01-15T10:16:41;8.30;99.90
35647;DHT22;28680;45.642;13.756;2024-01-15T10:19:10;8.30;99.90
35647;DHT22;28680;45.642;13.756;2024-01-15T10:21:36;8.20;99.90
35647;DHT22;28680;45.642;13.756;2024-01-15T10:24:03;8.20;99.90
35647;DHT22;28680;45.642;13.756;2024-01-15T10:26:30;8.10;99.90
35647;DHT22;28680;45.642;13.756;2024-01-15T10:28:58;8.10;99.90
35647;DHT22;28680;45.642;13.756;2024-01-15T10:31:24;8.20;99.90
35647;DHT22;28680;45.642;13.756;2024-01-15T10:33:50;8.10;99.90
35647;DHT22;28680;45.642;13.756;2024-01-15T10:36:17;8.10;99.90
35647;DHT22;28680;45.642;13.756;2024-01-15T10:38:44;8.20;99.90
35647;DHT22;28680;45.642;13.756;2024-01-15T10:41:10;8.10;99.90
35647;DHT22;28680;45.642;13.756;2024-01-15T10:43:36;8.20;99.90
35647;DHT22;28680;45.642;13.756;2024-01-15T10:46:02;8.10;99.90
35647;DHT22;28680;45.642;13.756;2024-01-15T10:48:28;8.10;99.90
35647;DHT22;28680;45.642;13.756;2024-01-15T10:50:57;8.10;99.90
35647;DHT22;28680;45.642;13.756;2024-01-15T10:53:24;8.10;99.90
35647;DHT22;28680;45.642;13.756;2024-01-15T10:55:54;8.10;99.90
35647;DHT22;28680;45.642;13.756;2024-01-15T10:58:21;8.10;99.90
35647;DHT22;28680;45.642;13.756;2024-01-15T11:00:48;8.10;99.90
35647;DHT22;28680;45.642;13.756;2024-01-15T11:03:14;8.20;99.90
35647;DHT22;28680;45.642;13.756;2024-01-15T11:05:44;8.20;99.90
35647;DHT22;28680;45.642;13.756;2024-01-15T11:08:10;8.20;99.90
35647;DHT22;28680;45.642;13.756;2024-01-15T11:10:43;8.30;99.90
35647;DHT22;28680;45.642;13.756;2024-01-15T11:16:06;8.20;99.90
35647;DHT22;28680;45.642;13.756;2024-01-15T11:18:36;8.30;99.90
35647;DHT22;28680;45.642;13.756;2024-01-15T11:23:51;8.10;99.90
35647;DHT22;28680;45.642;13.756;2024-01-15T11:29:07;8.00;99.90
35647;DHT22;28680;45.642;13.756;2024-01-15T11:34:10;8.10;99.90
35647;DHT22;28680;45.642;13.756;2024-01-15T11:41:54;8.20;99.90
35647;DHT22;28680;45.642;13.756;2024-01-15T11:44:21;8.10;99.90
35647;DHT22;28680;45.642;13.756;2024-01-15T11:47:03;8.00;99.90
35647;DHT22;28680;45.642;13.756;2024-01-15T11:50:00;8.00;99.90
35647;DHT22;28680;45.642;13.756;2024-01-15T11:52:35;8.10;99.90
35647;DHT22;28680;45.642;13.756;2024-01-15T11:55:17;8.10;99.90
35647;DHT22;28680;45.642;13.756;2024-01-15T12:00:13;8.10;99.90
35647;DHT22;28680;45.642;13.756;2024-01-15T12:02:41;8.10;99.90
35647;DHT22;28680;45.642;13.756;2024-01-15T12:05:08;8.10;99.90
35647;DHT22;28680;45.642;13.756;2024-01-15T12:07:34;8.10;99.90
35647;DHT22;28680;45.642;13.756;2024-01-15T12:10:01;8.10;99.90
35647;DHT22;28680;45.642;13.756;2024-01-15T12:15:17;8.20;99.90
35647;DHT22;28680;45.642;13.756;2024-01-15T12:17:43;8.30;99.90
35647;DHT22;28680;45.642;13.756;2024-01-15T12:20:11;8.30;99.90
35647;DHT22;28680;45.642;13.756;2024-01-15T12:22:38;8.30;99.90
35647;DHT22;28680;45.642;13.756;2024-01-15T12:25:04;8.30;99.90
35647;DHT22;28680;45.642;13.756;2024-01-15T12:27:30;8.30;99.90
35647;DHT22;28680;45.642;13.756;2024-01-15T12:29:57;8.20;99.90
35647;DHT22;28680;45.642;13.756;2024-01-15T12:32:24;8.20;99.90
35647;DHT22;28680;45.642;13.756;2024-01-15T12:34:50;8.10;99.90
35647;DHT22;28680;45.642;13.756;2024-01-15T12:37:19;8.20;99.90
35647;DHT22;28680;45.642;13.756;2024-01-15T12:39:46;8.20;99.90
35647;DHT22;28680;45.642;13.756;2024-01-15T12:42:14;8.20;99.90
35647;DHT22;28680;45.642;13.756;2024-01-15T12:44:40;8.20;99.90
35647;DHT22;28680;45.642;13.756;2024-01-15T12:47:06;8.30;99.90
35647;DHT22;28680;45.642;13.756;2024-01-15T12:49:32;8.30;99.90
35647;DHT22;28680;45.642;13.756;2024-01-15T12:51:58;8.30;99.90
35647;DHT22;28680;45.642;13.756;2024-01-15T12:54:25;8.30;99.90
35647;DHT22;28680;45.642;13.756;2024-01-15T12:56:51;8.30;99.90
35647;DHT22;28680;45.642;13.756;2024-01-15T12:59:18;8.40;99.90
35647;DHT22;28680;45.642;13.756;2024-01-15T13:01:44;8.40;99.90
35647;DHT22;28680;45.642;13.756;2024-01-15T13:04:10;8.40;99.90
35647;DHT22;28680;45.642;13.756;2024-01-15T13:06:36;8.40;99.90
35647;DHT22;28680;45.642;13.756;2024-01-15T13:09:05;8.40;99.90
35647;DHT22;28680;45.642;13.756;2024-01-15T13:11:32;8.50;99.90
35647;DHT22;28680;45.642;13.756;2024-01-15T13:13:58;8.40;99.90
35647;DHT22;28680;45.642;13.756;2024-01-15T13:16:24;8.50;99.90
35647;DHT22;28680;45.642;13.756;2024-01-15T13:18:52;8.40;99.90
35647;DHT22;28680;45.642;13.756;2024-01-15T13:21:18;8.40;99.90
35647;DHT22;28680;45.642;13.756;2024-01-15T13:23:44;8.40;99.90
35647;DHT22;28680;45.642;13.756;2024-01-15T13:26:09;8.30;99.90
35647;DHT22;28680;45.642;13.756;2024-01-15T13:28:35;8.30;99.90
35647;DHT22;28680;45.642;13.756;2024-01-15T13:31:01;8.30;99.90
35647;DHT22;28680;45.642;13.756;2024-01-15T13:33:27;8.30;99.90
35647;DHT22;28680;45.642;13.756;2024-01-15T13:35:53;8.40;99.90
35647;DHT22;28680;45.642;13.756;2024-01-15T13:38:19;8.40;99.90
35647;DHT22;28680;45.642;13.756;2024-01-15T13:40:45;8.40;99.90
35647;DHT22;28680;45.642;13.756;2024-01-15T13:43:11;8.30;99.90
35647;DHT22;28680;45.642;13.756;2024-01-15T13:45:37;8.40;99.90
35647;DHT22;28680;45.642;13.756;2024-01-15T13:48:04;8.40;99.90
35647;DHT22;28680;45.642;13.756;2024-01-15T13:50:31;8.40;99.90
35647;DHT22;28680;45.642;13.756;2024-01-15T13:52:57;8.40;99.90
35647;DHT22;28680;45.642;13.756;2024-01-15T13:55:23;8.40;99.90
35647;DHT22;28680;45.642;13.756;2024-01-15T13:57:49;8.40;99.90
35647;DHT22;28680;45.642;13.756;2024-01-15T14:00:15;8.40;99.90
35647;DHT22;28680;45.642;13.756;2024-01-15T14:02:44;8.50;99.90
35647;DHT22;28680;45.642;13.756;2024-01-15T14:05:10;8.30;99.90
35647;DHT22;28680;45.642;13.756;2024-01-15T14:07:41;8.30;99.90
35647;DHT22;28680;45.642;13.756;2024-01-15T14:10:09;8.30;99.90
35647;DHT22;28680;45.642;13.756;2024-01-15T14:12:35;8.30;99.90
35647;DHT22;28680;45.642;13.756;2024-01-15T14:15:02;8.40;99.90
35647;DHT22;28680;45.642;13.756;2024-01-15T14:17:29;8.30;99.90
35647;DHT22;28680;45.642;13.756;2024-01-15T14:19:55;8.30;99.90
35647;DHT22;28680;45.642;13.756;2024-01-15T14:22:20;8.20;99.90
35647;DHT22;28680;45.642;13.756;2024-01-15T14:24:46;8.30;99.90
35647;DHT22;28680;45.642;13.756;2024-01-15T14:27:12;8.30;99.90
35647;DHT22;28680;45.642;13.756;2024-01-15T14:29:38;8.30;99.90
35647;DHT22;28680;45.642;13.756;2024-01-15T14:32:04;8.30;99.90
35647;DHT22;28680;45.642;13.756;2024-01-15T14:34:30;8.20;99.90
35647;DHT22;28680;45.642;13.756;2024-01-15T14:36:56;8.30;99.90
35647;DHT22;28680;45.642;13.756;2024-01-15T14:39:22;8.20;99.90
35647;DHT22;28680;45.642;13.756;2024-01-15T14:41:48;8.20;99.90
35647;DHT22;28680;45.642;13.756;2024-01-15T14:44:14;8.20;99.90
35647;DHT22;28680;45.642;13.756;2024-01-15T14:46:40;8.20;99.90
35647;DHT22;28680;45.642;13.756;2024-01-15T14:49:06;8.20;99.90
35647;DHT22;28680;45.642;13.756;2024-01-15T14:51:32;8.20;99.90
35647;DHT22;28680;45.642;13.756;2024-01-15T14:53:58;8.20;99.90
35647;DHT22;28680;45.642;13.756;2024-01-15T14:56:23;8.20;99.90
35647;DHT22;28680;45.642;13.756;2024-01-15T14:58:49;8.20;99.90
35647;DHT22;28680;45.642;13.756;2024-01-15T15:01:15;8.10;99.90
35647;DHT22;28680;45.642;13.756;2024-01-15T15:03:41;8.10;99.90
35647;DHT22;28680;45.642;13.756;2024-01-15T15:06:07;8.00;99.90
35647;DHT22;28680;45.642;13.756;2024-01-15T15:08:33;8.00;99.90
35647;DHT22;28680;45.642;13.756;2024-01-15T15:11:00;8.00;99.90
35647;DHT22;28680;45.642;13.756;2024-01-15T15:13:26;8.00;99.90
35647;DHT22;28680;45.642;13.756;2024-01-15T15:15:53;7.90;99.90
35647;DHT22;28680;45.642;13.756;2024-01-15T15:18:22;7.90;99.90
35647;DHT22;28680;45.642;13.756;2024-01-15T15:20:48;8.00;99.90
35647;DHT22;28680;45.642;13.756;2024-01-15T15:23:15;8.00;99.90
35647;DHT22;28680;45.642;13.756;2024-01-15T15:25:41;8.00;99.90
35647;DHT22;28680;45.642;13.756;2024-01-15T15:28:09;7.90;99.90
35647;DHT22;28680;45.642;13.756;2024-01-15T15:30:37;7.90;99.90
35647;DHT22;28680;45.642;13.756;2024-01-15T15:33:03;7.90;99.90
35647;DHT22;28680;45.642;13.756;2024-01-15T15:35:31;7.90;99.90
35647;DHT22;28680;45.642;13.756;2024-01-15T15:37:57;7.90;99.90
35647;DHT22;28680;45.642;13.756;2024-01-15T15:40:23;7.90;99.90
35647;DHT22;28680;45.642;13.756;2024-01-15T15:42:50;7.90;99.90
35647;DHT22;28680;45.642;13.756;2024-01-15T15:45:16;8.00;99.90